TimeMDT,TemperatureF,Dew PointF,Humidity,Sea Level PressureIn,VisibilityMPH,Wind Direction,Wind SpeedMPH,Gust SpeedMPH,PrecipitationIn,Events,Conditions,WindDirDegrees,DateUTC
12:53 AM,33.1,28.0,82,30.16,10.0,WNW,25.3,39.1,0.00,,Overcast,300,2013-10-05 06:53:00
1:53 AM,32.0,27.0,82,30.18,9.0,NW,28.8,39.1,0.00,Snow,Light Snow,310,2013-10-05 07:53:00
2:09 AM,32.0,26.6,80,30.11,10.0,WNW,27.6,39.1,0.00,,Overcast,300,2013-10-05 08:09:00
2:53 AM,32.0,27.0,82,30.18,10.0,WNW,25.3,39.1,0.00,,Overcast,300,2013-10-05 08:53:00
3:09 AM,32.0,28.4,87,30.11,10.0,WNW,28.8,38.0,N/A,,Overcast,300,2013-10-05 09:09:00
3:23 AM,33.8,26.6,75,30.11,10.0,NW,35.7,46.0,N/A,,Overcast,320,2013-10-05 09:23:00
3:53 AM,32.0,27.0,82,30.16,10.0,NW,28.8,39.1,N/A,,Overcast,310,2013-10-05 09:53:00
4:53 AM,33.1,-9999,N/A,30.16,10.0,NW,28.8,35.7,N/A,,Overcast,310,2013-10-05 10:53:00
5:53 AM,33.1,-9999,N/A,30.16,10.0,WNW,27.6,40.3,N/A,,Overcast,300,2013-10-05 11:53:00
6:53 AM,34.0,-9999,N/A,30.16,10.0,WNW,27.6,36.8,N/A,,Overcast,300,2013-10-05 12:53:00
7:53 AM,34.0,-9999,N/A,30.17,10.0,WNW,25.3,35.7,N/A,,Overcast,300,2013-10-05 13:53:00
8:53 AM,35.1,28.0,76,30.19,10.0,NW,23.0,33.4,N/A,,Overcast,310,2013-10-05 14:53:00
9:53 AM,37.0,28.0,70,30.18,10.0,NW,32.2,41.4,N/A,,Clear,320,2013-10-05 15:53:00
10:53 AM,37.9,28.0,68,30.18,10.0,NW,35.7,47.2,N/A,,Clear,310,2013-10-05 16:53:00
11:53 AM,37.9,28.0,68,30.19,10.0,WNW,27.6,36.8,N/A,,Clear,300,2013-10-05 17:53:00
12:53 PM,39.9,28.9,65,30.17,10.0,NW,26.5,41.4,N/A,,Clear,310,2013-10-05 18:53:00
1:53 PM,43.0,28.9,58,30.15,10.0,NW,29.9,43.7,N/A,,Partly Cloudy,310,2013-10-05 19:53:00
2:53 PM,45.0,28.0,52,30.13,10.0,NW,35.7,47.2,N/A,,Partly Cloudy,310,2013-10-05 20:53:00
3:53 PM,46.9,28.0,48,30.15,10.0,WNW,28.8,34.5,N/A,,Mostly Cloudy,300,2013-10-05 21:53:00
4:53 PM,46.9,27.0,46,30.13,10.0,WNW,27.6,34.5,N/A,,Clear,300,2013-10-05 22:53:00
5:53 PM,45.0,24.1,44,30.14,10.0,WNW,29.9,41.4,N/A,,Clear,300,2013-10-05 23:53:00
6:53 PM,41.0,26.1,55,30.18,10.0,NW,13.8,-,N/A,,Clear,310,2013-10-06 00:53:00
7:53 PM,39.0,25.0,57,30.20,10.0,WNW,10.4,-,N/A,,Clear,300,2013-10-06 01:53:00
8:53 PM,36.0,26.1,67,30.21,10.0,WNW,12.7,-,N/A,,Clear,300,2013-10-06 02:53:00
9:53 PM,36.0,26.1,67,30.22,10.0,NW,11.5,-,N/A,,Clear,320,2013-10-06 03:53:00
10:53 PM,39.9,25.0,55,30.19,10.0,WNW,11.5,23.0,N/A,,Clear,290,2013-10-06 04:53:00
11:53 PM,36.0,26.1,67,30.21,10.0,NW,11.5,-,N/A,,Clear,320,2013-10-06 05:53:00